createdAt,value
2019-01-24T00:02:07.965Z,68.08
2019-01-24T00:04:39.607Z,68.80
2019-01-24T00:07:08.839Z,68.60
2019-01-24T00:09:39.095Z,68.14
2019-01-24T00:12:12.095Z,68.66
2019-01-24T00:14:42.494Z,68.20
2019-01-24T00:17:11.683Z,68.34
2019-01-24T00:19:45.930Z,68.26
2019-01-24T00:22:15.066Z,68.50
2019-01-24T00:24:44.233Z,68.22
2019-01-24T00:27:18.631Z,67.40
2019-01-24T00:29:57.165Z,67.78
2019-01-24T00:32:26.295Z,68.10
2019-01-24T00:34:57.546Z,68.03
2019-01-24T00:37:26.556Z,67.82
2019-01-24T00:39:55.759Z,68.01
2019-01-24T00:42:28.503Z,68.03
2019-01-24T00:44:57.625Z,67.59
2019-01-24T00:47:28.250Z,67.66
2019-01-24T00:49:59.089Z,67.28
2019-01-24T00:52:28.363Z,67.39
2019-01-24T00:54:57.577Z,67.51
2019-01-24T00:57:26.914Z,67.61
2019-01-24T00:59:57.489Z,67.29
2019-01-24T01:02:28.418Z,66.55
2019-01-24T01:04:58.074Z,67.43
2019-01-24T01:07:27.192Z,68.25
2019-01-24T01:09:56.388Z,67.83
2019-01-24T01:12:25.537Z,67.56
2019-01-24T01:14:57.651Z,67.54
2019-01-24T01:17:32.794Z,67.07
2019-01-24T01:20:07.373Z,67.35
2019-01-24T01:22:37.694Z,66.95
2019-01-24T01:25:09.822Z,66.16
2019-01-24T01:27:41.074Z,66.20
2019-01-24T01:30:22.704Z,65.26
2019-01-24T01:32:56.190Z,64.95
2019-01-24T01:35:31.874Z,65.90
2019-01-24T01:38:23.408Z,64.85
2019-01-24T01:40:52.676Z,65.00
2019-01-24T01:43:23.667Z,65.83
2019-01-24T01:45:54.356Z,66.33
2019-01-24T01:48:25.030Z,67.21
2019-01-24T01:50:57.516Z,66.29
2019-01-24T01:53:28.603Z,65.87
2019-01-24T01:55:59.683Z,65.38
2019-01-24T01:58:28.842Z,65.74
2019-01-24T02:00:58.158Z,66.10
2019-01-24T02:03:33.468Z,66.47
2019-01-24T02:06:02.597Z,66.19
2019-01-24T02:08:32.090Z,66.73
2019-01-24T02:11:03.708Z,67.40
2019-01-24T02:13:35.107Z,67.79
2019-01-24T02:16:08.511Z,67.33
2019-01-24T02:18:42.958Z,67.02
2019-01-24T02:21:14.211Z,65.51
2019-01-24T02:26:14.107Z,65.87
2019-01-24T02:28:43.310Z,65.63
2019-01-24T02:31:13.637Z,65.13
2019-01-24T02:33:46.517Z,64.13
2019-01-24T02:36:19.708Z,64.06
2019-01-24T02:38:48.867Z,64.86
2019-01-24T02:41:20.871Z,64.80
2019-01-24T02:43:49.980Z,63.98
2019-01-24T02:46:25.050Z,64.31
2019-01-24T02:48:54.874Z,64.73
2019-01-24T02:51:23.973Z,64.27
2019-01-24T02:53:57.297Z,64.61
2019-01-24T02:56:29.582Z,64.76
2019-01-24T02:59:04.092Z,63.78
2019-01-24T03:01:33.864Z,63.50
2019-01-24T03:04:03.054Z,63.73
2019-01-24T03:06:32.210Z,63.85
2019-01-24T03:09:05.526Z,63.67
2019-01-24T03:11:36.275Z,64.02
2019-01-24T03:14:06.588Z,64.15
2019-01-24T03:16:36.817Z,64.47
2019-01-24T03:19:07.754Z,64.05
2019-01-24T03:21:37.319Z,63.68
2019-01-24T03:24:08.862Z,63.88
2019-01-24T03:26:39.921Z,64.27
2019-01-24T03:29:12.143Z,64.79
2019-01-24T03:31:43.787Z,64.51
2019-01-24T03:34:12.875Z,64.55
2019-01-24T03:36:42.013Z,64.28
2019-01-24T03:39:12.431Z,64.43
2019-01-24T03:41:45.226Z,63.45
2019-01-24T03:44:15.959Z,62.63
2019-01-24T03:46:45.108Z,62.35
2019-01-24T03:49:14.434Z,62.30
2019-01-24T03:51:44.704Z,61.93
2019-01-24T03:54:16.360Z,61.62
2019-01-24T03:56:49.229Z,62.23
2019-01-24T03:59:24.494Z,61.40
2019-01-24T04:01:54.946Z,61.62
2019-01-24T04:04:25.718Z,62.90
2019-01-24T04:06:54.853Z,62.64
2019-01-24T04:09:27.201Z,62.43
2019-01-24T04:11:58.829Z,64.44
2019-01-24T04:14:29.988Z,67.05
2019-01-24T04:17:01.220Z,65.11
2019-01-24T04:19:32.947Z,64.47
2019-01-24T04:22:03.489Z,63.92
2019-01-24T04:24:34.254Z,64.08
2019-01-24T04:27:05.407Z,62.03
2019-01-24T04:29:34.553Z,62.75
2019-01-24T04:32:05.174Z,61.03
2019-01-24T04:34:36.001Z,60.75
2019-01-24T04:37:07.887Z,60.80
2019-01-24T04:39:41.755Z,61.69
2019-01-24T04:42:17.527Z,61.42
2019-01-24T04:44:46.655Z,60.52
2019-01-24T04:47:16.401Z,61.28
2019-01-24T04:49:51.179Z,62.37
2019-01-24T04:52:22.068Z,60.80
2019-01-24T04:54:51.501Z,60.50
2019-01-24T04:57:21.024Z,59.75
2019-01-24T04:59:51.840Z,59.65
2019-01-24T05:02:24.196Z,60.57
2019-01-24T05:04:57.445Z,61.60
2019-01-24T05:07:28.081Z,62.59
2019-01-24T05:09:57.238Z,61.84
2019-01-24T05:12:31.040Z,61.12
2019-01-24T05:15:00.382Z,61.43
2019-01-24T05:17:29.522Z,63.89
2019-01-24T05:20:05.705Z,62.51
2019-01-24T05:22:34.895Z,61.02
2019-01-24T05:25:04.615Z,62.03
2019-01-24T05:27:35.503Z,61.68
2019-01-24T05:30:07.070Z,61.90
2019-01-24T05:32:39.482Z,60.25
2019-01-24T05:35:11.958Z,61.11
2019-01-24T05:37:41.344Z,61.90
2019-01-24T05:40:11.237Z,62.01
2019-01-24T05:42:41.686Z,61.85
2019-01-24T05:45:12.443Z,61.32
2019-01-24T05:47:45.118Z,61.43
2019-01-24T05:50:14.619Z,62.53
2019-01-24T05:52:44.520Z,62.35
2019-01-24T05:55:15.336Z,61.25
2019-01-24T05:57:44.580Z,61.06
2019-01-24T06:00:19.972Z,61.51
2019-01-24T06:02:51.999Z,62.77
2019-01-24T06:05:23.155Z,61.37
2019-01-24T06:07:54.970Z,62.91
2019-01-24T06:10:24.187Z,64.00
2019-01-24T06:12:57.328Z,63.09
2019-01-24T06:15:25.072Z,61.15
2019-01-24T06:17:55.362Z,60.97
2019-01-24T06:20:26.959Z,60.58
2019-01-24T06:22:56.071Z,59.59
2019-01-24T06:25:27.227Z,59.83
2019-01-24T06:27:56.410Z,59.19
2019-01-24T06:30:26.981Z,59.00
2019-01-24T06:33:02.069Z,60.80
2019-01-24T06:35:33.898Z,62.48
2019-01-24T06:38:05.097Z,60.48
2019-01-24T06:40:36.805Z,59.06
2019-01-24T06:43:09.544Z,60.52
2019-01-24T06:45:38.652Z,60.28
2019-01-24T06:48:10.018Z,58.69
2019-01-24T06:50:40.555Z,61.00
2019-01-24T06:53:24.573Z,59.24
2019-01-24T06:55:48.123Z,58.25
2019-01-24T06:58:18.797Z,60.55
2019-01-24T07:00:49.421Z,59.83
2019-01-24T07:03:23.103Z,60.07
2019-01-24T07:05:55.574Z,61.50
2019-01-24T07:08:30.239Z,61.79
2019-01-24T07:10:59.409Z,60.97
2019-01-24T07:13:29.621Z,60.11
2019-01-24T07:16:07.502Z,60.65
2019-01-24T07:18:36.661Z,59.94
2019-01-24T07:21:06.059Z,61.03
2019-01-24T07:23:44.284Z,61.49
2019-01-24T07:26:19.657Z,58.22
2019-01-24T07:28:49.081Z,61.80
2019-01-24T07:31:25.707Z,62.71
2019-01-24T07:33:54.905Z,62.67
2019-01-24T07:36:24.513Z,60.23
2019-01-24T07:38:54.208Z,60.16
2019-01-24T07:41:26.616Z,60.23
2019-01-24T07:43:56.470Z,62.66
2019-01-24T07:46:29.267Z,60.33
2019-01-24T07:48:59.694Z,59.94
2019-01-24T07:51:28.895Z,61.52
2019-01-24T07:54:06.505Z,61.26
2019-01-24T07:56:38.560Z,62.04
2019-01-24T07:59:07.721Z,62.82
2019-01-24T08:01:39.612Z,62.63
2019-01-24T08:04:14.769Z,63.34
2019-01-24T08:06:44.084Z,65.38
2019-01-24T08:09:14.697Z,63.21
2019-01-24T08:11:45.279Z,62.88
2019-01-24T08:14:16.326Z,61.44
2019-01-24T08:16:45.512Z,60.62
2019-01-24T08:19:20.529Z,63.03
2019-01-24T08:21:49.604Z,64.38
2019-01-24T08:24:21.261Z,63.90
2019-01-24T08:26:54.386Z,62.18
2019-01-24T08:29:24.300Z,60.92
2019-01-24T08:31:53.691Z,58.83
2019-01-24T08:34:22.952Z,59.67
2019-01-24T08:36:53.746Z,58.15
2019-01-24T08:39:22.900Z,58.84
2019-01-24T08:41:54.685Z,57.34
2019-01-24T08:44:32.096Z,58.00
2019-01-24T08:47:01.762Z,59.45
2019-01-24T08:49:31.187Z,60.76
2019-01-24T08:52:03.958Z,60.58
2019-01-24T08:54:34.278Z,61.69
2019-01-24T08:57:10.959Z,58.58
2019-01-24T08:59:40.192Z,59.13
2019-01-24T09:02:10.485Z,59.19
2019-01-24T09:04:40.703Z,57.91
2019-01-24T09:07:14.496Z,58.41
2019-01-24T09:09:43.763Z,57.91
2019-01-24T09:12:13.741Z,57.77
2019-01-24T09:14:47.437Z,58.13
2019-01-24T09:17:16.565Z,59.54
2019-01-24T09:19:46.240Z,61.30
2019-01-24T09:22:19.666Z,62.33
2019-01-24T09:24:50.423Z,58.87
2019-01-24T09:27:26.365Z,57.95
2019-01-24T09:30:02.283Z,57.38
2019-01-24T09:32:31.380Z,57.49
2019-01-24T09:35:01.276Z,60.67
2019-01-24T09:37:35.377Z,57.09
2019-01-24T09:40:08.233Z,58.22
2019-01-24T09:42:42.470Z,57.67
2019-01-24T09:45:19.315Z,55.22
2019-01-24T09:47:48.710Z,57.19
2019-01-24T09:50:21.742Z,55.86
2019-01-24T09:52:51.970Z,57.21
2019-01-24T09:55:24.009Z,55.21
2019-01-24T09:57:55.619Z,58.96
2019-01-24T10:00:29.255Z,55.96
2019-01-24T10:03:00.687Z,55.88
2019-01-24T10:05:30.106Z,55.26
2019-01-24T10:08:00.741Z,57.67
2019-01-24T10:10:32.223Z,59.92
2019-01-24T10:13:13.938Z,58.30
2019-01-24T10:15:43.645Z,56.36
2019-01-24T10:18:21.435Z,56.83
2019-01-24T10:20:54.369Z,55.34
2019-01-24T10:23:24.925Z,55.11
2019-01-24T10:26:00.309Z,55.76
2019-01-24T10:28:29.558Z,59.57
2019-01-24T10:30:58.926Z,60.36
2019-01-24T10:33:31.220Z,58.22
2019-01-24T10:36:15.748Z,55.94
2019-01-24T10:38:45.117Z,58.25
2019-01-24T10:41:15.724Z,56.58
2019-01-24T10:43:47.980Z,57.36
2019-01-24T10:46:18.750Z,58.53
2019-01-24T10:48:53.012Z,57.50
2019-01-24T10:51:23.717Z,56.81
2019-01-24T10:53:53.082Z,56.24
2019-01-24T10:56:22.398Z,57.63
2019-01-24T10:58:55.140Z,58.47
2019-01-24T11:01:24.615Z,56.66
2019-01-24T11:03:57.921Z,58.06
2019-01-24T11:06:31.651Z,58.95
2019-01-24T11:09:02.442Z,56.36
2019-01-24T11:11:31.775Z,59.18
2019-01-24T11:14:00.999Z,59.92
2019-01-24T11:16:33.489Z,62.51
2019-01-24T11:19:02.796Z,60.38
2019-01-24T11:21:32.044Z,60.97
2019-01-24T11:24:01.641Z,59.89
2019-01-24T11:26:34.012Z,59.72
2019-01-24T11:29:04.053Z,57.34
2019-01-24T11:31:33.328Z,55.90
2019-01-24T11:34:05.765Z,59.57
2019-01-24T11:36:34.983Z,60.97
2019-01-24T11:39:07.370Z,58.68
2019-01-24T11:41:36.442Z,57.70
2019-01-24T11:44:05.706Z,56.23
2019-01-24T11:46:37.462Z,57.00
2019-01-24T11:49:06.631Z,58.47
2019-01-24T11:51:41.393Z,61.12
2019-01-24T11:54:18.469Z,60.22
2019-01-24T11:56:51.348Z,61.63
2019-01-24T11:59:20.040Z,63.40
2019-01-24T12:01:52.305Z,59.24
2019-01-24T12:04:24.924Z,60.08
2019-01-24T12:06:55.370Z,59.72
2019-01-24T12:09:27.806Z,57.54
2019-01-24T12:11:59.709Z,59.27
2019-01-24T12:14:30.942Z,59.38
2019-01-24T12:17:03.367Z,60.05
2019-01-24T12:19:33.570Z,59.94
2019-01-24T12:22:02.985Z,62.48
2019-01-24T12:24:34.712Z,61.67
2019-01-24T12:27:13.421Z,62.71
2019-01-24T12:29:43.710Z,64.29
2019-01-24T12:32:16.748Z,65.09
2019-01-24T12:34:46.083Z,62.63
2019-01-24T12:37:18.575Z,64.73
2019-01-24T12:39:55.702Z,65.00
2019-01-24T12:42:36.490Z,64.53
2019-01-24T12:45:08.047Z,66.07
2019-01-24T12:47:51.328Z,64.36
2019-01-24T12:50:09.683Z,64.53
2019-01-24T12:52:41.213Z,64.24
2019-01-24T12:55:12.015Z,64.95
2019-01-24T12:57:44.223Z,66.36
2019-01-24T13:00:18.514Z,65.54
2019-01-24T13:02:48.765Z,64.83
2019-01-24T13:05:19.940Z,65.53
2019-01-24T13:07:53.432Z,65.15
2019-01-24T13:10:26.448Z,63.88
2019-01-24T13:12:58.843Z,61.37
2019-01-24T13:15:29.888Z,62.74
2019-01-24T13:17:59.078Z,63.17
2019-01-24T13:20:28.415Z,61.10
2019-01-24T13:22:58.726Z,64.91
2019-01-24T13:25:33.331Z,63.99
2019-01-24T13:28:07.528Z,64.72
2019-01-24T13:30:34.696Z,63.43
2019-01-24T13:33:06.122Z,60.87
2019-01-24T13:35:35.914Z,61.23
2019-01-24T13:38:07.781Z,61.24
2019-01-24T13:40:37.434Z,61.97
2019-01-24T13:43:11.085Z,61.21
2019-01-24T13:45:46.539Z,60.78
2019-01-24T13:48:16.037Z,60.66
2019-01-24T13:50:45.826Z,61.48
2019-01-24T13:53:17.276Z,60.47
2019-01-24T13:55:49.453Z,61.02
2019-01-24T13:58:21.855Z,59.01
2019-01-24T14:00:52.389Z,58.95
2019-01-24T14:03:54.574Z,59.76
2019-01-24T14:06:37.958Z,63.71
2019-01-24T14:11:50.349Z,63.62
2019-01-24T14:14:20.670Z,66.38
2019-01-24T14:16:51.306Z,62.29
2019-01-24T14:19:23.573Z,64.02
2019-01-24T14:21:55.095Z,62.48
2019-01-24T14:24:28.109Z,63.19
2019-01-24T14:27:01.440Z,66.07
2019-01-24T14:29:30.840Z,67.07
2019-01-24T14:32:06.303Z,64.53
2019-01-24T14:34:36.961Z,65.93
2019-01-24T14:37:08.822Z,65.23
2019-01-24T14:39:38.849Z,63.89
2019-01-24T14:42:16.329Z,63.27
2019-01-24T14:44:45.669Z,61.63
2019-01-24T14:47:16.341Z,60.69
2019-01-24T14:49:48.812Z,63.82
2019-01-24T14:52:21.410Z,65.68
2019-01-24T14:54:51.479Z,66.05
2019-01-24T14:57:22.974Z,66.31
2019-01-24T14:59:53.982Z,67.11
2019-01-24T15:02:23.950Z,66.25
2019-01-24T15:04:53.156Z,63.77
2019-01-24T15:07:24.858Z,63.64
2019-01-24T15:09:55.398Z,64.91
2019-01-24T15:12:26.323Z,66.03
2019-01-24T15:14:55.467Z,64.85
2019-01-24T15:17:24.846Z,63.66
2019-01-24T15:19:56.058Z,63.23
2019-01-24T15:22:25.560Z,63.00
2019-01-24T15:24:54.842Z,64.82
2019-01-24T15:27:24.101Z,61.68
2019-01-24T15:29:56.197Z,61.77
2019-01-24T15:32:25.498Z,60.62
2019-01-24T15:34:57.595Z,61.29
2019-01-24T15:37:26.812Z,59.87
2019-01-24T15:39:56.009Z,61.20
2019-01-24T15:42:26.446Z,61.43
2019-01-24T15:45:00.844Z,60.35
2019-01-24T15:47:40.267Z,60.13
2019-01-24T15:50:00.942Z,59.86
2019-01-24T15:52:34.108Z,60.80
2019-01-24T15:55:03.315Z,60.77
2019-01-24T15:57:36.508Z,61.87
2019-01-24T16:00:11.196Z,61.38
2019-01-24T16:02:41.743Z,63.91
2019-01-24T16:05:12.971Z,60.37
2019-01-24T16:08:01.333Z,61.49
2019-01-24T16:10:27.715Z,62.31
2019-01-24T16:12:56.979Z,62.40
2019-01-24T16:15:29.044Z,63.35
2019-01-24T16:17:58.316Z,62.56
2019-01-24T16:20:36.718Z,61.31
2019-01-24T16:23:09.003Z,61.85
2019-01-24T16:25:41.692Z,62.01
2019-01-24T16:28:12.855Z,61.48
2019-01-24T16:30:42.001Z,59.29
2019-01-24T16:33:12.526Z,59.75
2019-01-24T16:35:44.926Z,58.33
2019-01-24T16:38:25.300Z,58.53
2019-01-24T16:40:54.668Z,58.43
2019-01-24T16:43:27.846Z,57.27
2019-01-24T16:45:57.107Z,59.54
2019-01-24T16:48:26.404Z,58.42
2019-01-24T16:50:55.587Z,58.54
2019-01-24T16:53:24.702Z,59.48
2019-01-24T16:55:58.017Z,58.73
2019-01-24T16:58:31.005Z,59.10
2019-01-24T17:01:16.647Z,58.43
2019-01-24T17:03:45.802Z,58.03
2019-01-24T17:06:15.318Z,56.81
2019-01-24T17:08:47.275Z,57.00
2019-01-24T17:11:17.726Z,57.43
2019-01-24T17:13:53.117Z,57.87
2019-01-24T17:16:23.273Z,58.91
2019-01-24T17:18:53.755Z,59.75
2019-01-24T17:21:22.953Z,58.60
2019-01-24T17:23:56.820Z,58.56
2019-01-24T17:26:28.397Z,58.71
2019-01-24T17:28:58.148Z,56.74
2019-01-24T17:31:30.704Z,59.15
2019-01-24T17:34:00.949Z,59.64
2019-01-24T17:36:36.544Z,58.01
2019-01-24T17:39:10.333Z,58.89
2019-01-24T17:41:39.467Z,57.22
2019-01-24T17:44:08.838Z,58.69
2019-01-24T17:46:39.296Z,60.39
2019-01-24T17:49:10.978Z,59.36
2019-01-24T17:51:41.654Z,59.58
2019-01-24T17:54:14.569Z,60.03
2019-01-24T17:56:46.849Z,58.76
2019-01-24T17:59:17.183Z,59.92
2019-01-24T18:01:46.529Z,58.62
2019-01-24T18:04:22.006Z,59.78
2019-01-24T18:07:00.267Z,59.98
2019-01-24T18:09:29.446Z,59.27
2019-01-24T18:11:59.118Z,60.06
2019-01-24T18:14:32.492Z,59.38
2019-01-24T18:17:01.641Z,60.62
2019-01-24T18:19:31.352Z,59.15
2019-01-24T18:22:02.980Z,60.47
2019-01-24T18:24:32.291Z,62.46
2019-01-24T18:27:04.627Z,63.06
2019-01-24T18:29:33.819Z,62.43
2019-01-24T18:32:03.004Z,64.48
2019-01-24T18:34:35.134Z,63.17
2019-01-24T18:37:05.480Z,63.24
2019-01-24T18:39:38.269Z,63.54
2019-01-24T18:42:07.459Z,61.72
2019-01-24T18:44:36.732Z,61.47
2019-01-24T18:47:08.889Z,61.69
2019-01-24T18:49:44.379Z,61.14
2019-01-24T18:52:13.392Z,63.36
2019-01-24T18:54:42.876Z,61.38
2019-01-24T18:57:18.682Z,63.63
2019-01-24T18:59:47.971Z,62.96
2019-01-24T19:02:22.115Z,60.32
2019-01-24T19:04:53.114Z,59.53
2019-01-24T19:07:22.281Z,61.50
2019-01-24T19:09:51.437Z,60.40
2019-01-24T19:12:24.848Z,60.09
2019-01-24T19:15:01.285Z,63.98
2019-01-24T19:17:30.439Z,63.31
2019-01-24T19:20:03.728Z,63.05
2019-01-24T19:22:37.270Z,61.88
2019-01-24T19:25:13.292Z,64.83
2019-01-24T19:27:42.595Z,64.00
2019-01-24T19:30:18.035Z,62.70
2019-01-24T19:32:51.637Z,62.82
2019-01-24T19:35:25.256Z,62.93
2019-01-24T19:37:52.883Z,61.90
2019-01-24T19:40:25.748Z,61.63
2019-01-24T19:42:59.073Z,62.91
2019-01-24T19:45:33.564Z,62.64
2019-01-24T19:48:08.372Z,60.96
2019-01-24T19:50:40.386Z,62.22
2019-01-24T19:53:13.065Z,60.92
2019-01-24T19:55:48.203Z,61.20
2019-01-24T19:58:18.418Z,63.75
2019-01-24T20:00:49.505Z,60.12
2019-01-24T20:03:19.761Z,60.76
2019-01-24T20:05:50.550Z,61.53
2019-01-24T20:08:20.110Z,62.43
2019-01-24T20:10:52.370Z,62.94
2019-01-24T20:13:21.526Z,62.75
2019-01-24T20:15:50.683Z,62.03
2019-01-24T20:18:19.838Z,63.06
2019-01-24T20:20:51.088Z,60.80
2019-01-24T20:23:21.885Z,59.20
2019-01-24T20:25:51.123Z,59.83
2019-01-24T20:28:21.368Z,60.09
2019-01-24T20:30:50.795Z,60.38
2019-01-24T20:33:20.065Z,59.80
2019-01-24T20:35:52.518Z,58.72
2019-01-24T20:38:22.120Z,57.15
2019-01-24T20:40:51.331Z,57.69
2019-01-24T20:43:26.492Z,56.79
2019-01-24T20:45:55.650Z,55.22
2019-01-24T20:48:24.779Z,54.94
2019-01-24T20:51:01.671Z,57.51
2019-01-24T20:53:30.832Z,57.48
2019-01-24T20:56:03.969Z,55.83
2019-01-24T20:58:37.433Z,55.25
2019-01-24T21:01:09.984Z,55.66
2019-01-24T21:03:39.699Z,55.36
2019-01-24T21:06:10.742Z,56.61
2019-01-24T21:08:39.924Z,56.59
2019-01-24T21:11:09.298Z,56.83
2019-01-24T21:13:40.014Z,60.38
2019-01-24T21:16:09.107Z,60.60
2019-01-24T21:18:39.748Z,58.78
2019-01-24T21:21:08.971Z,61.43
2019-01-24T21:23:49.342Z,62.94
2019-01-24T21:26:21.446Z,61.97
2019-01-24T21:28:50.643Z,63.47
2019-01-24T21:31:19.837Z,62.21
2019-01-24T21:33:49.007Z,62.70
2019-01-24T21:36:24.246Z,61.96
2019-01-24T21:38:56.209Z,63.61
2019-01-24T21:41:25.478Z,64.47
2019-01-24T21:44:03.699Z,64.63
2019-01-24T21:46:32.849Z,65.02
2019-01-24T21:49:02.915Z,64.56
2019-01-24T21:51:33.405Z,64.54
2019-01-24T21:54:05.542Z,65.44
2019-01-24T21:56:35.988Z,65.42
2019-01-24T21:59:07.241Z,64.89
2019-01-24T22:01:37.691Z,62.43
2019-01-24T22:04:08.374Z,66.25
2019-01-24T22:06:37.725Z,65.54
2019-01-24T22:09:14.445Z,64.45
2019-01-24T22:11:43.577Z,63.99
2019-01-24T22:14:15.975Z,63.02
2019-01-24T22:16:46.820Z,62.70
2019-01-24T22:19:16.144Z,63.24
2019-01-24T22:21:47.209Z,64.15
2019-01-24T22:24:16.825Z,62.81
2019-01-24T22:26:46.208Z,62.11
2019-01-24T22:29:16.865Z,63.03
2019-01-24T22:31:46.039Z,62.06
2019-01-24T22:34:16.917Z,63.01
2019-01-24T22:36:51.124Z,61.60
2019-01-24T22:39:21.550Z,59.01
2019-01-24T22:41:55.252Z,61.74
2019-01-24T22:44:24.399Z,62.55
2019-01-24T22:46:56.892Z,60.74
2019-01-24T22:49:36.356Z,58.99
2019-01-24T22:52:11.384Z,62.35
2019-01-24T22:54:43.626Z,60.03
2019-01-24T22:57:12.981Z,58.13
2019-01-24T22:59:42.451Z,59.88
2019-01-24T23:02:31.876Z,60.97
2019-01-24T23:05:01.024Z,60.83
2019-01-24T23:07:30.162Z,61.83
2019-01-24T23:10:04.458Z,61.06
2019-01-24T23:12:33.787Z,58.68
2019-01-24T23:15:09.468Z,58.89
2019-01-24T23:17:41.171Z,60.29
2019-01-24T23:20:11.849Z,60.73
2019-01-24T23:22:44.211Z,60.98
2019-01-24T23:25:13.370Z,61.00
2019-01-24T23:27:42.672Z,61.93
2019-01-24T23:30:12.189Z,62.09
2019-01-24T23:32:45.889Z,60.40
2019-01-24T23:35:17.675Z,60.81
2019-01-24T23:37:52.315Z,60.54
2019-01-24T23:40:23.239Z,59.51
2019-01-24T23:42:59.183Z,57.90
2019-01-24T23:45:28.600Z,58.36
2019-01-24T23:48:03.971Z,59.36
2019-01-24T23:50:33.159Z,60.68
2019-01-24T23:53:03.086Z,61.97
2019-01-24T23:55:33.414Z,61.79
2019-01-24T23:58:05.558Z,61.45
